METAR Data
IDs: Format: Raw Decoded Include TAF

Data at: 0824 UTC 20 Sep 2018

KHAE 200815Z AUTO 18005KT 10SM CLR 25/22 A2993 RMK AO2
KHAE 200755Z AUTO 19006KT 10SM CLR 25/22 A2993 RMK AO2
KHAE 200735Z AUTO 20005KT 10SM CLR 25/22 A2994 RMK AO2
KHAE 200715Z AUTO 20005KT 10SM CLR 25/22 A2994 RMK AO2
KHAE 200655Z AUTO 20006KT 10SM CLR 25/21 A2994 RMK AO2
KHAE 200635Z AUTO 20006KT 10SM CLR 25/21 A2994 RMK AO2
KHAE 200615Z AUTO 20006KT 10SM CLR 25/21 A2993 RMK AO2
KHAE 200555Z AUTO 19005KT 10SM CLR 25/21 A2993 RMK AO2
KHAE 200535Z AUTO 18006KT 10SM CLR 25/21 A2993 RMK AO2
KHAE 200515Z AUTO 18005KT 10SM CLR 25/21 A2993 RMK AO2
KHAE 200455Z AUTO 17005KT 10SM CLR 25/21 A2993 RMK AO2
KHAE 200435Z AUTO 17005KT 10SM CLR 25/21 A2993 RMK AO2
KHAE 200415Z AUTO 17004KT 10SM CLR 25/20 A2993 RMK AO2
KHAE 200355Z AUTO 16004KT 10SM CLR 25/20 A2993 RMK AO2
KHAE 200335Z AUTO 16005KT 10SM CLR 26/20 A2993 RMK AO2
KHAE 200315Z AUTO 15005KT 10SM CLR 26/20 A2993 RMK AO2
KHAE 200255Z AUTO 16004KT 10SM CLR 26/20 A2994 RMK AO2
KHAE 200235Z AUTO 15005KT 10SM CLR 26/20 A2994 RMK AO2
KHAE 200215Z AUTO 16005KT 10SM CLR 27/20 A2994 RMK AO2
KHAE 200155Z AUTO 16005KT 7SM CLR 27/20 A2994 RMK AO2
KHAE 200135Z AUTO 15005KT 7SM CLR 27/20 A2993 RMK AO2
KHAE 192155Z AUTO 18005KT 10SM SCT100 34/17 A2992 RMK AO2
KHAE 192135Z AUTO 19006KT 10SM CLR 34/17 A2991 RMK AO2
KHAE 192115Z AUTO 18004KT 10SM CLR 34/17 A2991 RMK AO2
KHAE 192055Z AUTO 00000KT 10SM CLR 35/18 A2991 RMK AO2
KHAE 192035Z AUTO 19003KT 7SM CLR 35/18 A2991 RMK AO2
KHAE 192015Z AUTO 15004KT 7SM CLR 35/18 A2992 RMK AO2
KHAE 191955Z AUTO 22004KT 7SM CLR 35/18 A2993 RMK AO2
KHAE 191935Z AUTO 21003KT 7SM SCT038 SCT046 34/18 A2993 RMK AO2
KHAE 191915Z AUTO 21005KT 10SM SCT038 35/19 A2995 RMK AO2
KHAE 191855Z AUTO 00000KT 10SM SCT060 SCT085 33/20 A2997 RMK AO2
KHAE 191835Z AUTO 00000KT 10SM 32/20 A2998 RMK AO2
KHAE 191815Z AUTO 14003KT 7SM 33/20 A2997 RMK AO2
KHAE 191755Z AUTO 00000KT 10SM 32/20 A2998 RMK AO2
KHAE 191735Z AUTO 20003KT 10SM 32/20 A2998 RMK AO2
KHAE 191715Z AUTO 00000KT 10SM CLR 32/20 A2998 RMK AO2
KHAE 191655Z AUTO 00000KT 5SM HZ CLR 32/20 A2999 RMK AO2
KHAE 191635Z AUTO 10003KT 10SM CLR 31/20 A3000 RMK AO2
KHAE 191615Z AUTO 13004KT 10SM CLR 30/20 A3000 RMK AO2
KHAE 191555Z AUTO 12004KT 10SM CLR 30/20 A3000 RMK AO2
KHAE 191535Z AUTO 08004KT 10SM CLR 29/20 A3000 RMK AO2
KHAE 191515Z AUTO 00000KT 10SM CLR 28/20 A3000 RMK AO2
KHAE 191455Z AUTO 11003KT 7SM CLR 28/20 A3000 RMK AO2
KHAE 191435Z AUTO 12003KT 10SM CLR 27/20 A2999 RMK AO2
KHAE 191415Z AUTO 12003KT 10SM CLR 26/20 A2999 RMK AO2
KHAE 191355Z AUTO 00000KT 10SM CLR 25/21 A2998 RMK AO2
KHAE 191335Z AUTO 13003KT 10SM CLR 23/20 A2998 RMK AO2 LTG DSNT N
KHAE 191315Z AUTO 00000KT 7SM CLR 23/20 A2999 RMK AO2
KHAE 191255Z AUTO 00000KT 5SM BR CLR 22/20 A2999 RMK AO2
KHAE 191235Z AUTO 00000KT 4SM BR CLR 21/20 A2998 RMK AO2
KHAE 191215Z AUTO 00000KT 4SM BR CLR 21/19 A2997 RMK AO2
KHAE 191155Z AUTO 00000KT 7SM CLR 21/19 A2997 RMK AO2
KHAE 191135Z AUTO 13004KT 7SM CLR 21/19 A2997 RMK AO2
KHAE 191115Z AUTO 12004KT 7SM CLR 21/19 A2996 RMK AO2
KHAE 191055Z AUTO 08005KT 7SM CLR 21/20 A2997 RMK AO2
KHAE 191035Z AUTO 09005KT 7SM CLR 21/19 A2997 RMK AO2
KHAE 191015Z AUTO 08006KT 5SM BR CLR 21/19 A2997 RMK AO2
KHAE 190955Z AUTO 06006KT 5SM BR CLR 21/20 A2997 RMK AO2 LTG DSNT E
KHAE 190935Z AUTO 07006KT 5SM BR CLR 21/20 A2996 RMK AO2
KHAE 190915Z AUTO 05005KT 5SM BR CLR 21/20 A2997 RMK AO2
KHAE 190855Z AUTO 01004KT 5SM VCTS BR CLR 21/20 A2996 RMK AO2 LTG DSNT NE
KHAE 190835Z AUTO 02004KT 5SM BR CLR 21/20 A2996 RMK AO2
KHAE 190815Z AUTO 00000KT 5SM BR SCT100 21/20 A2995 RMK AO2
KHAE 190755Z AUTO 06004KT 5SM BR BKN100 21/20 A2994 RMK AO2
KHAE 190735Z AUTO 04007KT 5SM BR BKN110 21/20 A2994 RMK AO2 LTG DSNT NW
KHAE 190715Z AUTO 04003KT 7SM SCT110 21/20 A2993 RMK AO2
KHAE 190655Z AUTO 21003KT 7SM CLR 22/20 A2992 RMK AO2
KHAE 190635Z AUTO 19003KT 7SM CLR 21/20 A2992 RMK AO2
KHAE 190615Z AUTO 18004KT 7SM CLR 22/20 A2992 RMK AO2
KHAE 190555Z AUTO 17003KT 7SM CLR 22/20 A2992 RMK AO2
KHAE 190535Z AUTO 17003KT 7SM SCT110 22/20 A2992 RMK AO2
KHAE 190515Z AUTO 18004KT 7SM SCT120 21/20 A2993 RMK AO2
KHAE 190455Z AUTO 19004KT 5SM BR CLR 21/20 A2993 RMK AO2 P0001
KHAE 190435Z AUTO 18003KT 7SM CLR 21/20 A2993 RMK AO2 P0001
KHAE 190415Z AUTO 17003KT 7SM CLR 21/20 A2993 RMK AO2
KHAE 190355Z AUTO 19004KT 7SM SCT110 21/20 A2994 RMK AO2
KHAE 190335Z AUTO 18005KT 7SM SCT120 21/20 A2994 RMK AO2
KHAE 190315Z AUTO 19004KT 7SM SCT085 BKN120 21/20 A2994 RMK AO2
KHAE 190255Z AUTO 17004KT 5SM BR SCT085 21/20 A2994 RMK AO2
KHAE 190235Z AUTO 17004KT 7SM CLR 22/20 A2994 RMK AO2
KHAE 190215Z AUTO 00000KT 5SM BR CLR 22/20 A2995 RMK AO2
KHAE 190155Z AUTO 00000KT 7SM CLR 22/20 A2994 RMK AO2
KHAE 190135Z AUTO 00000KT 7SM CLR 22/20 A2995 RMK AO2
KHAE 190115Z AUTO 15003KT 4SM BR SCT120 22/21 A2995 RMK AO2
KHAE 190055Z AUTO 15003KT 5SM BR SCT120 22/20 A2995 RMK AO2 P0001
KHAE 190035Z AUTO 09003KT 7SM CLR 22/20 A2993 RMK AO2 P0001
KHAE 190015Z AUTO 06004KT 10SM DZ SCT043 SCT050 SCT080 22/20 A2994 RMK AO2 P0001
KHAE 182355Z AUTO 05005KT 7SM -RA SCT050 BKN060 OVC085 22/21 A2995 RMK AO2 P0001
KHAE 182335Z AUTO 03006KT 10SM DZ SCT050 BKN060 BKN090 22/20 A2995 RMK AO2 P0001
KHAE 182315Z AUTO 04005KT 10SM -RA SCT100 SCT120 22/20 A2994 RMK AO2 LTG DSNT N
KHAE 182255Z AUTO 03007G16KT 003V063 5SM -RA SCT028 SCT050 BKN110 23/20 A2995 RMK AO2 P0003 LTG DSNT NW
KHAE 182235Z AUTO 36010G19KT 333V033 10SM SCT024 SCT055 BKN110 25/18 A2995 RMK AO2 LTG DSNT NE
KHAE 182215Z AUTO 36010KT 333V033 7SM SCT065 SCT085 27/18 A2993 RMK AO2 LTG DSNT NW
KHAE 182155Z AUTO 02008KT 7SM CLR 30/19 A2991 RMK AO2 LTG DSNT N AND NW
KHAE 182135Z AUTO 00000KT 7SM CLR 32/18 A2989 RMK AO2 LTG DSNT W AND NW
KHAE 182115Z AUTO 00000KT 7SM SCT085 34/16 A2990 RMK AO2 LTG DSNT W
KHAE 182055Z AUTO 00000KT 10SM CLR 35/15 A2989 RMK AO2
KHAE 182035Z AUTO 00000KT 7SM CLR 34/15 A2990 RMK AO2